createdAt,value
2023-02-22T00:44:35.809Z,73.63
2023-02-22T00:45:35.783Z,74.65
2023-02-22T00:46:35.714Z,74.48
2023-02-22T00:47:35.748Z,74.72
2023-02-22T00:48:35.776Z,75.12
2023-02-22T00:49:35.646Z,0
2023-02-22T00:50:35.612Z,75.63
2023-02-22T00:51:35.597Z,76.38
2023-02-22T00:52:35.585Z,76.99
2023-02-22T00:53:35.709Z,76.82
2023-02-22T00:54:35.576Z,76.79
2023-02-22T00:55:35.555Z,77.13
2023-02-22T00:56:35.552Z,77.03
2023-02-22T00:57:35.737Z,77.03
2023-02-22T03:47:35.772Z,81.77
2023-02-22T04:10:25.188Z,82.22
2023-02-22T04:11:53.734Z,82.26
2023-02-22T04:12:24.774Z,83.07
2023-02-22T04:13:27.722Z,82.97
2023-02-22T04:14:24.784Z,83.42
2023-02-22T04:15:25.758Z,83.59
2023-02-22T04:16:28.797Z,83.79
2023-02-22T04:17:26.694Z,83.38
2023-02-22T04:18:25.840Z,82.97
2023-02-22T04:19:24.862Z,83.07
2023-02-22T04:20:24.791Z,83.28
2023-02-22T04:21:24.852Z,83.38
2023-02-22T04:22:25.614Z,84
2023-02-22T04:23:24.725Z,84.03
2023-02-22T04:25:35.038Z,83.28
2023-02-22T04:26:35.979Z,83.28
2023-02-22T04:27:34.933Z,83.18
2023-02-22T04:28:34.988Z,83.48
2023-02-22T04:29:35.915Z,83.44
2023-02-22T04:30:34.905Z,82.53
2023-02-22T04:31:34.894Z,83.07
2023-02-22T04:32:34.888Z,82.97
2023-02-22T04:33:34.867Z,83.38
2023-02-22T04:34:34.865Z,83.48
2023-02-22T04:35:34.847Z,83.18
2023-02-22T04:36:34.835Z,83.48
2023-02-22T04:37:34.835Z,83.69
2023-02-22T04:38:34.817Z,83.18
2023-02-22T04:39:34.808Z,83.48
2023-02-22T04:40:34.814Z,83.59
2023-02-22T04:41:34.790Z,83.89
2023-02-22T04:42:34.780Z,83.38
2023-02-22T04:43:34.775Z,83.44
2023-02-22T04:44:42.413Z,82.73
2023-02-22T04:45:34.793Z,82.73
2023-02-22T04:46:34.835Z,82.73
2023-02-22T04:47:42.485Z,82.73
2023-02-22T04:48:42.356Z,82.53
2023-02-22T04:49:42.348Z,82.49
2023-02-22T04:50:42.451Z,81.57
2023-02-22T04:51:34.751Z,82.42
2023-02-22T04:52:34.746Z,82.18
2023-02-22T04:53:34.671Z,81.87
2023-02-22T04:54:34.720Z,82.28
2023-02-22T04:55:34.646Z,81.46
2023-02-22T04:56:34.661Z,81.81
2023-02-22T04:57:34.627Z,82.22
2023-02-22T04:58:34.604Z,82.18
2023-02-22T04:59:34.607Z,81.37
2023-02-22T05:00:34.584Z,82.12
2023-02-22T05:01:34.588Z,82.42
2023-02-22T05:02:34.580Z,82.53
2023-02-22T05:03:34.556Z,82.28
2023-02-22T05:04:34.540Z,82.42
2023-02-22T05:05:34.530Z,82.18
2023-02-22T05:06:34.523Z,81.87
2023-02-22T05:07:34.514Z,81.71
2023-02-22T05:08:34.499Z,82.42
2023-02-22T05:09:34.490Z,82.83
2023-02-22T05:10:34.477Z,81.98
2023-02-22T05:11:34.465Z,82.49
2023-02-22T05:12:34.461Z,82.18
2023-02-22T05:13:34.448Z,81.77
2023-02-22T05:14:34.439Z,82.49
2023-02-22T05:15:34.435Z,82.53
2023-02-22T05:16:34.414Z,82.42
2023-02-22T05:17:34.403Z,82.49
2023-02-22T05:18:34.391Z,82.83
2023-02-22T05:19:34.385Z,82.83
2023-02-22T05:20:34.379Z,82.93
2023-02-22T05:21:34.372Z,83.04
2023-02-22T05:22:34.351Z,83.14
2023-02-22T05:23:34.343Z,83.04
2023-02-22T05:24:34.338Z,83.04
2023-02-22T05:25:34.319Z,83.75
2023-02-22T05:26:34.312Z,83.44
2023-02-22T05:27:34.298Z,82.83
2023-02-22T05:28:34.315Z,83.65
2023-02-22T05:29:34.279Z,82.93
2023-02-22T05:30:34.272Z,83.1
2023-02-22T05:31:34.258Z,82.73
2023-02-22T05:32:34.249Z,83.38
2023-02-22T05:33:34.238Z,83.85
2023-02-22T05:34:34.240Z,83.85
2023-02-22T05:35:34.218Z,83.85
2023-02-22T05:36:34.216Z,83.65
2023-02-22T05:37:34.209Z,83.85
2023-02-22T05:38:34.188Z,83.95
2023-02-22T05:39:34.179Z,83.65
2023-02-22T05:40:34.188Z,83.44
2023-02-22T05:41:34.154Z,83.04
2023-02-22T05:42:34.148Z,83.75
2023-02-22T05:43:34.136Z,83.75
2023-02-22T05:44:34.128Z,83.14
2023-02-22T05:45:34.120Z,83.24
2023-02-22T05:46:34.111Z,83.54
2023-02-22T05:47:34.094Z,83.1
2023-02-22T05:48:34.086Z,83.54
2023-02-22T05:49:34.071Z,83.3
2023-02-22T05:50:34.062Z,83.61
2023-02-22T05:51:34.054Z,82.79
2023-02-22T05:52:34.049Z,83.44
2023-02-22T05:53:34.036Z,83.3
2023-02-22T05:54:34.022Z,83.16
2023-02-22T05:55:34.010Z,82.75
2023-02-22T05:56:34.009Z,82.14
2023-02-22T05:57:33.994Z,81.63
2023-02-22T05:58:33.982Z,82.04
2023-02-22T05:59:33.975Z,82.28
2023-02-22T06:00:33.964Z,82.59
2023-02-22T06:01:33.953Z,83.4
2023-02-22T06:02:33.938Z,83.51
2023-02-22T06:03:33.932Z,83.2
2023-02-22T06:04:33.923Z,83.04
2023-02-22T06:05:33.935Z,83.65
2023-02-22T06:06:33.909Z,83.51
2023-02-22T06:07:33.891Z,83.26
2023-02-22T06:08:33.900Z,82.59
2023-02-22T06:09:33.868Z,83
2023-02-22T06:10:33.861Z,83.16
2023-02-22T06:11:33.846Z,82.65
2023-02-22T06:12:33.849Z,82.75
2023-02-22T06:13:33.823Z,82.14
2023-02-22T06:14:33.822Z,82.75
2023-02-22T06:15:33.808Z,82.35
2023-02-22T06:16:33.795Z,82.45
2023-02-22T06:17:33.784Z,82.55
2023-02-22T06:18:33.786Z,82.86
2023-02-22T06:19:33.764Z,82.24
2023-02-22T06:20:33.760Z,82.45
2023-02-22T06:21:33.740Z,81.73
2023-02-22T06:22:33.738Z,82.24
2023-02-22T06:23:33.721Z,82.45
2023-02-22T06:24:33.721Z,81.73
2023-02-22T06:25:33.703Z,82.24
2023-02-22T06:26:33.690Z,82.75
2023-02-22T06:27:33.683Z,82.69
2023-02-22T06:30:35.690Z,82.69
2023-02-22T06:31:35.593Z,83.1
2023-02-22T06:32:35.623Z,83.1
2023-02-22T06:33:35.557Z,82.79
2023-02-22T06:34:35.654Z,83.26
2023-02-22T06:35:35.533Z,82.45
2023-02-22T06:36:35.495Z,82.75
2023-02-22T06:37:35.501Z,82
2023-02-22T06:38:35.478Z,81.84
2023-02-22T06:39:35.465Z,81.39
2023-02-22T06:40:35.455Z,82.35
2023-02-22T06:41:35.475Z,82.55
2023-02-22T06:42:35.434Z,81.96
2023-02-22T06:43:35.429Z,79.89
2023-02-22T06:44:35.420Z,80.09
2023-02-22T06:45:35.411Z,80.36
2023-02-22T06:46:35.415Z,79.14
2023-02-22T06:47:35.381Z,79.72
2023-02-22T06:48:35.379Z,79.89
2023-02-22T06:49:35.360Z,80.33
2023-02-22T06:50:35.354Z,80.91
2023-02-22T06:51:35.348Z,81.7
2023-02-22T06:52:35.346Z,81.49
2023-02-22T06:53:35.332Z,81.53
2023-02-22T06:54:35.314Z,82.45
2023-02-22T06:55:35.305Z,82.69
2023-02-22T06:56:35.295Z,83.2
2023-02-22T06:57:35.288Z,83.78
2023-02-22T06:58:35.286Z,83.06
2023-02-22T06:59:35.259Z,83.06
2023-02-22T07:00:35.252Z,83.02
2023-02-22T07:01:35.238Z,82.51
2023-02-22T07:02:35.228Z,82.75
2023-02-22T07:03:35.221Z,83
2023-02-22T07:04:35.218Z,83.26
2023-02-22T07:05:35.202Z,83.16
2023-02-22T07:06:35.192Z,83.06
2023-02-22T07:07:35.175Z,83.26
2023-02-22T07:08:35.169Z,82.86
2023-02-22T07:09:35.162Z,83.4
2023-02-22T07:10:35.158Z,83.51
2023-02-22T07:11:35.139Z,84.57
2023-02-22T07:12:35.126Z,84.33
2023-02-22T07:13:35.115Z,83.78
2023-02-22T07:14:35.112Z,83.57
2023-02-22T07:15:35.097Z,83.57
2023-02-22T07:16:35.090Z,83.47
2023-02-22T07:17:35.075Z,82.75
2023-02-22T07:18:35.061Z,82.75
2023-02-22T07:19:35.053Z,83.1
2023-02-22T07:20:35.039Z,83.4
2023-02-22T07:21:35.029Z,83.87
2023-02-22T07:22:35.025Z,83.67
2023-02-22T07:23:35.015Z,83.23
2023-02-22T07:24:35.004Z,83.02
2023-02-22T07:25:34.988Z,82.71
2023-02-22T07:26:34.985Z,82.41
2023-02-22T07:27:34.973Z,82.71
2023-02-22T07:28:34.975Z,82.1
2023-02-22T07:29:34.951Z,82.21
2023-02-22T07:30:34.943Z,82.61
2023-02-22T07:31:34.929Z,83.26
2023-02-22T07:32:34.916Z,82.82
2023-02-22T07:33:34.913Z,82.96
2023-02-22T07:34:34.912Z,82.96
2023-02-22T07:35:34.883Z,83.02
2023-02-22T07:36:34.879Z,82.61
2023-02-22T07:37:35.858Z,82.51
2023-02-22T07:38:35.161Z,81.35
2023-02-22T07:39:34.844Z,82.51
2023-02-22T07:40:34.864Z,82.57
2023-02-22T07:41:34.860Z,81.56
2023-02-22T07:42:34.831Z,82.07
2023-02-22T07:43:34.844Z,80.94
2023-02-22T07:44:34.800Z,81.45
2023-02-22T07:45:34.790Z,81.35
2023-02-22T07:46:34.778Z,81.9
2023-02-22T07:47:34.762Z,81.49
2023-02-22T07:48:34.759Z,81.9
2023-02-22T07:49:34.760Z,81.96
2023-02-22T07:50:34.748Z,81.31
2023-02-22T07:51:34.735Z,80.84
2023-02-22T07:52:34.765Z,80.84
2023-02-22T07:53:34.696Z,81.49
2023-02-22T07:54:34.694Z,81.7
2023-02-22T07:55:34.672Z,81.9
2023-02-22T07:56:34.661Z,81.8
2023-02-22T07:57:34.707Z,81.59
2023-02-22T07:58:34.643Z,81.31
2023-02-22T07:59:34.647Z,80.19
2023-02-22T08:00:34.619Z,79.64
2023-02-22T08:01:34.609Z,79.71
2023-02-22T08:02:34.607Z,78.72
2023-02-22T08:03:34.600Z,76.28
2023-02-22T08:04:34.655Z,76.45
2023-02-22T08:05:34.563Z,75.98
2023-02-22T08:06:34.568Z,77.13
2023-02-22T08:07:34.561Z,76.42
2023-02-22T08:08:34.536Z,77.98
2023-02-22T08:09:34.586Z,77.13
2023-02-22T08:10:34.583Z,76.68
2023-02-22T08:11:34.503Z,76.75
2023-02-22T08:12:34.500Z,75.43
2023-02-22T08:13:34.520Z,0
2023-02-22T08:14:34.476Z,0
2023-02-22T08:15:34.485Z,0
2023-02-22T08:16:34.462Z,77.47
2023-02-22T08:17:34.440Z,77.98
2023-02-22T08:18:34.523Z,78.28
2023-02-22T08:19:34.436Z,77.57
2023-02-22T08:20:34.412Z,78.12
2023-02-22T08:21:34.413Z,79.17
2023-02-22T08:22:34.418Z,79.89
2023-02-22T08:23:34.375Z,78.69
2023-02-22T08:24:34.384Z,78.19
2023-02-22T08:25:34.353Z,77.64
2023-02-22T08:26:34.346Z,77.17
2023-02-22T08:27:34.351Z,77.37
2023-02-22T08:28:34.323Z,78.28
2023-02-22T08:29:34.312Z,77.78
2023-02-22T08:30:34.313Z,78.15
2023-02-22T08:31:34.314Z,0
2023-02-22T08:32:34.326Z,77.13
2023-02-22T08:33:34.290Z,77.37
2023-02-22T08:34:34.256Z,0
2023-02-22T08:35:34.258Z,0
2023-02-22T08:36:34.246Z,0
2023-02-22T08:37:34.232Z,0
2023-02-22T08:38:34.224Z,79.48
2023-02-22T08:39:34.214Z,79.34
2023-02-22T08:40:34.206Z,79.03
2023-02-22T08:41:34.191Z,78.69
2023-02-22T08:42:34.183Z,78.49
2023-02-22T08:43:34.168Z,77.53
2023-02-22T08:44:34.167Z,77.23
2023-02-22T08:45:34.162Z,76.82
2023-02-22T08:46:34.137Z,76.52
2023-02-22T08:47:34.132Z,78.08
2023-02-22T08:48:34.120Z,77.53
2023-02-22T08:49:34.176Z,77.26
2023-02-22T08:50:34.126Z,0
2023-02-22T08:51:34.091Z,78.53
2023-02-22T08:52:34.079Z,0
2023-02-22T08:53:34.068Z,0
2023-02-22T08:54:34.052Z,0
2023-02-22T08:55:34.042Z,0
2023-02-22T08:56:34.034Z,0
2023-02-22T08:57:34.032Z,0
2023-02-22T08:58:34.006Z,0
2023-02-22T08:59:34.003Z,0
2023-02-22T09:00:34.013Z,77.13
2023-02-22T09:01:33.978Z,0
2023-02-22T09:02:33.993Z,0
2023-02-22T09:03:33.986Z,0
2023-02-22T09:04:33.947Z,0
2023-02-22T09:05:34.116Z,75.98
2023-02-22T09:06:33.921Z,75.94
2023-02-22T09:07:33.910Z,75.49
2023-02-22T09:08:33.908Z,75.19
2023-02-22T09:09:33.976Z,74.01
2023-02-22T09:10:33.886Z,73.8
2023-02-22T09:11:33.888Z,73.5
2023-02-22T09:12:33.874Z,0
2023-02-22T09:13:33.849Z,0
2023-02-22T09:14:33.843Z,0
2023-02-22T09:15:33.843Z,0
2023-02-22T09:16:33.827Z,76.25
2023-02-22T09:17:33.821Z,75.57
2023-02-22T09:18:33.839Z,76.38
2023-02-22T09:19:33.815Z,0
2023-02-22T09:20:33.781Z,0
2023-02-22T09:21:33.794Z,0
2023-02-22T09:22:33.755Z,0
2023-02-22T09:23:33.764Z,0
2023-02-22T09:24:33.736Z,76.45
2023-02-22T09:25:33.728Z,75.6
2023-02-22T09:26:33.730Z,74.79
2023-02-22T09:27:33.712Z,74.48
2023-02-22T09:28:33.728Z,74.48
2023-02-22T09:29:33.763Z,0
2023-02-22T09:30:33.673Z,74.44
2023-02-22T09:31:33.705Z,73.74
2023-02-22T09:32:33.663Z,73.7
2023-02-22T09:33:33.651Z,73.33
2023-02-22T09:34:33.639Z,74.11
2023-02-22T09:35:33.627Z,75.12
2023-02-22T09:36:33.617Z,74.65
2023-02-22T09:37:33.602Z,73.6
2023-02-22T09:38:33.609Z,73.6
2023-02-22T09:39:33.580Z,72.78
2023-02-22T09:40:33.565Z,73.8
2023-02-22T09:41:33.570Z,72.96
2023-02-22T09:42:33.553Z,72.34
2023-02-22T09:43:33.545Z,71.53
2023-02-22T09:44:33.526Z,72.14
2023-02-22T09:45:33.515Z,72.72
2023-02-22T09:46:33.590Z,0
2023-02-22T09:47:33.518Z,73.22
2023-02-22T09:48:33.488Z,73.39
2023-02-22T09:49:33.502Z,72.89
2023-02-22T09:50:33.477Z,72.14
2023-02-22T09:51:33.454Z,71.88
2023-02-22T09:52:33.441Z,72.89
2023-02-22T09:53:33.434Z,72.89
2023-02-22T09:54:33.435Z,72.89
2023-02-22T09:55:33.420Z,72.75
2023-02-22T09:56:33.398Z,72.04
2023-02-22T09:57:33.399Z,0
2023-02-22T09:58:33.370Z,72.85
2023-02-22T09:59:33.366Z,72.55
2023-02-22T10:00:33.374Z,72.01
2023-02-22T10:01:33.364Z,71.3
2023-02-22T10:02:33.337Z,71.3
2023-02-22T10:03:33.335Z,70.59
2023-02-22T10:04:33.437Z,71.94
2023-02-22T10:05:33.330Z,71.4
2023-02-22T10:06:33.293Z,71.91
2023-02-22T10:07:33.296Z,72.01
2023-02-22T10:08:33.268Z,71.47
2023-02-22T10:09:33.274Z,71.57
2023-02-22T10:10:33.301Z,71.47
2023-02-22T10:11:33.241Z,70.56
2023-02-22T10:12:33.234Z,69.92
2023-02-22T10:13:33.230Z,69.95
2023-02-22T10:14:33.228Z,70.96
2023-02-22T10:15:33.207Z,70.35
2023-02-22T10:16:33.208Z,70.89
2023-02-22T10:17:33.170Z,71.84
2023-02-22T10:18:33.220Z,71.84
2023-02-22T10:19:33.205Z,0
2023-02-22T10:20:33.158Z,72.41
2023-02-22T10:21:33.135Z,71.77
2023-02-22T10:22:33.124Z,70.42
2023-02-22T10:23:33.121Z,70.01
2023-02-22T10:24:33.324Z,69.98
2023-02-22T10:25:33.107Z,0
2023-02-22T10:26:33.075Z,0
2023-02-22T10:27:33.073Z,0
2023-02-22T10:28:33.059Z,0
2023-02-22T10:29:33.102Z,0
2023-02-22T10:30:33.046Z,71.47
2023-02-22T10:31:33.020Z,70.59
2023-02-22T10:32:33.017Z,69.54
2023-02-22T10:33:33.040Z,0
2023-02-22T10:34:32.996Z,69.78
2023-02-22T10:35:33.016Z,69.78
2023-02-22T10:36:32.980Z,0
2023-02-22T10:37:32.988Z,0
2023-02-22T10:38:33.041Z,0
2023-02-22T10:39:32.946Z,70.35
2023-02-22T10:40:32.956Z,0
2023-02-22T10:41:32.945Z,0
2023-02-22T10:42:32.909Z,0
2023-02-22T10:43:32.899Z,0
2023-02-22T10:44:40.922Z,0
2023-02-22T10:45:32.949Z,69.98
2023-02-22T10:46:32.925Z,0
2023-02-22T10:47:32.879Z,0
2023-02-22T10:48:32.850Z,0
2023-02-22T10:49:32.875Z,0
2023-02-22T10:50:32.860Z,0
2023-02-22T10:51:32.843Z,0
2023-02-22T10:52:32.808Z,0
2023-02-22T10:53:32.798Z,0
2023-02-22T10:54:32.805Z,0
2023-02-22T10:55:32.799Z,0
2023-02-22T10:56:32.764Z,0
2023-02-22T10:57:32.764Z,0
2023-02-22T10:58:32.750Z,69.31
2023-02-22T10:59:32.750Z,0
2023-02-22T11:00:32.727Z,68.37
2023-02-22T11:01:32.753Z,0
2023-02-22T11:02:32.890Z,68.03
2023-02-22T11:03:32.698Z,0
2023-02-22T11:04:32.683Z,67.76
2023-02-22T11:05:32.672Z,68.26
2023-02-22T11:06:32.686Z,68.47
2023-02-22T11:07:32.654Z,67.86
2023-02-22T11:08:39.349Z,68.47
2023-02-22T11:09:32.675Z,68.06
2023-02-22T11:10:32.626Z,0
2023-02-22T11:11:32.613Z,0
2023-02-22T11:12:32.595Z,0
2023-02-22T11:13:32.588Z,0
2023-02-22T11:14:32.582Z,0
2023-02-22T11:15:32.564Z,0
2023-02-22T11:16:32.552Z,69.41
2023-02-22T11:17:32.539Z,0
2023-02-22T11:18:32.542Z,0
2023-02-22T11:19:32.525Z,0
2023-02-22T11:20:32.507Z,0
2023-02-22T11:21:32.496Z,0
2023-02-22T11:22:32.494Z,0
2023-02-22T11:23:32.476Z,0
2023-02-22T11:24:32.461Z,0
2023-02-22T11:25:32.453Z,0
2023-02-22T11:26:32.439Z,0
2023-02-22T11:27:32.433Z,0
2023-02-22T11:28:32.425Z,0
2023-02-22T11:29:32.415Z,0
2023-02-22T11:30:32.403Z,0
2023-02-22T11:31:32.389Z,0
2023-02-22T11:32:32.383Z,0
2023-02-22T11:33:32.369Z,0
2023-02-22T11:34:32.355Z,0
2023-02-22T11:35:32.356Z,0
2023-02-22T11:36:32.339Z,0
2023-02-22T11:37:32.331Z,0
2023-02-22T11:38:32.316Z,0
2023-02-22T11:39:32.307Z,0
2023-02-22T11:40:32.301Z,0
2023-02-22T11:41:32.293Z,0
2023-02-22T11:42:32.279Z,0
2023-02-22T11:43:32.299Z,0
2023-02-22T11:44:32.280Z,0
2023-02-22T11:45:32.255Z,0
2023-02-22T11:46:32.240Z,0
2023-02-22T11:47:32.237Z,0
2023-02-22T11:48:32.216Z,0
2023-02-22T11:49:32.207Z,0
2023-02-22T11:50:32.185Z,0
2023-02-22T11:51:32.186Z,0
2023-02-22T11:52:32.172Z,0
2023-02-22T11:53:32.161Z,0
2023-02-22T11:54:32.148Z,0
2023-02-22T11:55:32.205Z,0
2023-02-22T11:56:32.124Z,0
2023-02-22T11:57:32.115Z,0
2023-02-22T11:58:32.107Z,0
2023-02-22T11:59:32.847Z,0
2023-02-22T12:00:32.083Z,0
2023-02-22T12:01:32.124Z,0
2023-02-22T12:02:32.103Z,0
2023-02-22T12:03:32.054Z,0
2023-02-22T12:04:32.120Z,0
2023-02-22T12:05:32.062Z,0
2023-02-22T12:06:32.019Z,0
2023-02-22T12:07:32.017Z,0
2023-02-22T12:08:32.006Z,0
2023-02-22T12:09:31.989Z,0
2023-02-22T12:10:31.976Z,0
2023-02-22T12:11:31.964Z,0
2023-02-22T12:12:31.964Z,0
2023-02-22T12:13:31.954Z,0
2023-02-22T12:14:31.934Z,0
2023-02-22T12:15:31.930Z,0
2023-02-22T12:16:32.073Z,0
2023-02-22T12:17:40.528Z,0
2023-02-22T12:18:32.028Z,58.11
2023-02-22T12:19:31.899Z,56.76
2023-02-22T12:20:31.876Z,56.85
2023-02-22T12:21:31.868Z,0
2023-02-22T12:22:31.856Z,58.42
2023-02-22T12:23:31.841Z,57.39
2023-02-22T12:24:31.829Z,57.98
2023-02-22T12:25:39.399Z,56.63
2023-02-22T12:26:31.818Z,56.56
2023-02-22T12:27:40.740Z,58.29
2023-02-22T12:28:31.817Z,56.76
2023-02-22T12:29:31.787Z,57.31
2023-02-22T12:30:31.876Z,57.91
2023-02-22T12:31:31.760Z,57.98
2023-02-22T12:32:31.754Z,56.45
2023-02-22T12:33:31.742Z,56.98
2023-02-22T12:34:31.730Z,58.14
2023-02-22T12:35:31.725Z,57.26
2023-02-22T12:36:31.709Z,56.33
2023-02-22T12:37:31.699Z,55.5
2023-02-22T12:38:31.704Z,56
2023-02-22T12:39:31.687Z,55.7
2023-02-22T12:40:31.667Z,55.98
2023-02-22T12:41:31.663Z,55.9
2023-02-22T12:42:31.728Z,56.73
2023-02-22T12:43:31.643Z,57.03
2023-02-22T12:44:31.628Z,57.26
2023-02-22T12:45:31.620Z,56.23
2023-02-22T12:46:31.612Z,56.43
2023-02-22T12:47:31.610Z,56.23
2023-02-22T12:48:31.608Z,56.23
2023-02-22T12:49:31.623Z,56.76
2023-02-22T12:50:31.578Z,55.7
2023-02-22T12:51:31.559Z,55.44
2023-02-22T12:52:31.557Z,55.15
2023-02-22T12:53:31.572Z,54.22
2023-02-22T12:54:31.519Z,54.52
2023-02-22T12:55:31.510Z,55.5
2023-02-22T12:56:31.504Z,57.03
2023-02-22T12:57:31.494Z,56.98
2023-02-22T12:58:31.489Z,58.22
2023-02-22T12:59:31.480Z,59.08
2023-02-22T13:00:31.463Z,0
2023-02-22T13:01:31.446Z,62.1
2023-02-22T13:02:31.438Z,61.74
2023-02-22T13:03:31.436Z,61.27
2023-02-22T13:04:31.429Z,61.44
2023-02-22T13:05:31.415Z,62.3
2023-02-22T13:06:31.391Z,62.21
2023-02-22T13:07:31.407Z,62.41
2023-02-22T13:08:32.460Z,62.51
2023-02-22T13:09:31.377Z,62.21
2023-02-22T13:10:31.367Z,0
2023-02-22T13:11:31.341Z,0
2023-02-22T13:12:31.336Z,0
2023-02-22T13:13:31.323Z,0
2023-02-22T13:14:31.315Z,0
2023-02-22T13:15:31.310Z,0
2023-02-22T13:16:31.289Z,0
2023-02-22T13:17:31.281Z,0
2023-02-22T13:18:31.381Z,0
2023-02-22T13:19:31.256Z,0
2023-02-22T13:20:31.255Z,0
2023-02-22T13:21:31.242Z,0
2023-02-22T13:22:31.232Z,0
2023-02-22T13:23:31.213Z,0
2023-02-22T13:24:31.215Z,0
2023-02-22T13:25:31.195Z,0
2023-02-22T13:26:31.183Z,0
2023-02-22T13:27:31.205Z,0
2023-02-22T13:28:31.168Z,0
2023-02-22T13:29:31.152Z,0
2023-02-22T13:30:31.144Z,0
2023-02-22T13:31:31.128Z,0
2023-02-22T13:32:31.166Z,0
2023-02-22T13:33:31.114Z,0
2023-02-22T13:34:31.104Z,0
2023-02-22T13:35:31.084Z,0
2023-02-22T13:36:31.084Z,0
2023-02-22T13:37:31.087Z,0
2023-02-22T13:38:31.063Z,0
2023-02-22T13:39:31.058Z,0
2023-02-22T13:40:31.043Z,0
2023-02-22T13:41:31.040Z,0
2023-02-22T13:42:31.019Z,0
2023-02-22T13:43:31.005Z,0
2023-02-22T13:44:30.994Z,0
2023-02-22T13:45:31.029Z,0
2023-02-22T13:46:31.009Z,0
2023-02-22T13:47:30.961Z,0
2023-02-22T13:48:30.963Z,0
2023-02-22T13:49:30.955Z,0
2023-02-22T13:50:30.994Z,0
2023-02-22T13:51:30.930Z,0
2023-02-22T13:52:30.925Z,0
2023-02-22T13:53:30.899Z,67.02
2023-02-22T13:54:30.892Z,0
2023-02-22T13:55:30.879Z,66.79
2023-02-22T13:56:30.872Z,66.66
2023-02-22T13:57:30.895Z,66.25
2023-02-22T13:58:30.863Z,66.25
2023-02-22T13:59:30.836Z,66.05
2023-02-22T14:00:30.848Z,66.08
2023-02-22T14:01:30.809Z,66.93
2023-02-22T14:02:30.804Z,67.02
2023-02-22T14:03:30.791Z,66.62
2023-02-22T14:04:30.913Z,66.89
2023-02-22T14:05:30.769Z,65.82
2023-02-22T14:06:30.757Z,63.65
2023-02-22T14:07:30.757Z,63.11
2023-02-22T14:08:30.740Z,63.08
2023-02-22T14:09:30.729Z,61.82
2023-02-22T14:10:30.715Z,60.05
2023-02-22T14:11:30.709Z,59.09
2023-02-22T14:12:30.712Z,58.26
2023-02-22T14:13:30.692Z,58.16
2023-02-22T14:14:30.674Z,57.83
2023-02-22T14:15:30.700Z,57.23
2023-02-22T14:16:30.656Z,57.68
2023-02-22T14:17:30.662Z,57.98
2023-02-22T14:18:30.631Z,58.49
2023-02-22T14:19:30.623Z,57.98
2023-02-22T14:20:30.604Z,58.09
2023-02-22T14:21:30.601Z,57.86
2023-02-22T14:22:30.590Z,59.05
2023-02-22T14:23:30.570Z,59.14
2023-02-22T14:24:30.602Z,59.12
2023-02-22T14:25:30.544Z,58.18
2023-02-22T14:26:30.542Z,58.62
2023-02-22T14:27:30.529Z,57.39
2023-02-22T14:28:30.514Z,58.31
2023-02-22T14:29:30.542Z,58.22
2023-02-22T14:30:30.495Z,57.46
2023-02-22T14:31:30.516Z,59.33
2023-02-22T14:32:30.474Z,59.6
2023-02-22T14:33:30.491Z,59.8
2023-02-22T14:34:30.448Z,58.77
2023-02-22T14:35:30.445Z,58.44
2023-02-22T14:36:30.440Z,58.42
2023-02-22T14:37:30.429Z,58.84
2023-02-22T14:38:30.403Z,57.59
2023-02-22T14:39:30.458Z,56.76
2023-02-22T14:40:30.390Z,57.15
2023-02-22T14:41:30.382Z,57.06
2023-02-22T14:42:30.376Z,57.01
2023-02-22T14:43:30.363Z,58.75
2023-02-22T14:44:30.346Z,58.51
2023-02-22T14:45:30.340Z,57.68
2023-02-22T14:46:30.321Z,0
2023-02-22T14:47:30.324Z,0
2023-02-22T14:48:30.302Z,0
2023-02-22T14:49:30.328Z,0
2023-02-22T14:50:30.287Z,0
2023-02-22T14:51:30.280Z,0
2023-02-22T14:52:30.261Z,0
2023-02-22T14:53:30.254Z,0
2023-02-22T14:54:30.257Z,0
2023-02-22T14:55:30.232Z,0
2023-02-22T14:56:30.224Z,0
2023-02-22T14:57:30.232Z,0
2023-02-22T14:58:30.232Z,0
2023-02-22T14:59:30.203Z,66.29
2023-02-22T15:00:30.211Z,66.08
2023-02-22T15:01:30.185Z,0
2023-02-22T15:02:30.189Z,0
2023-02-22T15:03:30.150Z,0
2023-02-22T15:04:30.131Z,0
2023-02-22T15:05:30.444Z,65.92
2023-02-22T15:06:30.235Z,0
2023-02-22T15:07:30.116Z,0
2023-02-22T15:08:30.148Z,0
2023-02-22T15:09:30.089Z,0
2023-02-22T15:10:30.081Z,0
2023-02-22T15:11:30.093Z,0
2023-02-22T15:12:30.074Z,0
2023-02-22T15:13:30.047Z,0
2023-02-22T15:14:30.084Z,0
2023-02-22T15:15:30.061Z,0
2023-02-22T15:16:30.024Z,0
2023-02-22T15:17:30.008Z,0
2023-02-22T15:18:29.987Z,0
2023-02-22T15:19:29.981Z,65.92
2023-02-22T15:20:29.967Z,0
2023-02-22T15:21:29.965Z,0
2023-02-22T15:22:30.015Z,0
2023-02-22T15:23:29.943Z,0
2023-02-22T15:24:29.984Z,0
2023-02-22T15:25:29.922Z,0
2023-02-22T15:26:29.923Z,0
2023-02-22T15:27:29.920Z,66.25
2023-02-22T15:28:29.928Z,65.92
2023-02-22T15:29:29.877Z,66.05
2023-02-22T15:30:29.874Z,66.05
2023-02-22T15:31:29.893Z,65.95
2023-02-22T15:32:29.887Z,65.75
2023-02-22T15:33:29.834Z,65.61
2023-02-22T15:34:29.826Z,65.21
2023-02-22T15:35:29.846Z,65.41
2023-02-22T15:36:29.820Z,65.11
2023-02-22T15:37:29.849Z,65.18
2023-02-22T15:38:29.784Z,65.28
2023-02-22T15:39:29.770Z,0
2023-02-22T15:40:29.772Z,0
2023-02-22T15:41:29.756Z,0
2023-02-22T15:42:29.742Z,0
2023-02-22T15:43:29.744Z,0
2023-02-22T15:44:29.748Z,0
2023-02-22T15:45:29.715Z,0
2023-02-22T15:46:29.746Z,0
2023-02-22T15:47:29.708Z,0
2023-02-22T15:48:29.740Z,0
2023-02-22T15:49:29.692Z,0
2023-02-22T15:50:29.749Z,0
2023-02-22T15:51:30.669Z,0
2023-02-22T15:52:29.732Z,0
2023-02-22T15:53:29.692Z,64.7
2023-02-22T15:54:29.645Z,0
2023-02-22T15:55:29.622Z,0
2023-02-22T15:56:29.607Z,0
2023-02-22T15:57:29.584Z,0
2023-02-22T15:58:29.581Z,0
2023-02-22T15:59:29.567Z,65.64
2023-02-22T16:00:29.552Z,0
2023-02-22T16:01:29.575Z,0
2023-02-22T16:02:29.530Z,0
2023-02-22T16:03:29.527Z,0
2023-02-22T16:04:29.531Z,0
2023-02-22T16:05:29.514Z,0
2023-02-22T16:06:29.496Z,0
2023-02-22T16:07:29.494Z,0
2023-02-22T16:08:29.469Z,0
2023-02-22T16:10:45.367Z,65.11
2023-02-22T16:16:22.918Z,64.3
2023-02-22T16:17:31.748Z,64.64
2023-02-22T16:18:30.488Z,61.9
2023-02-22T16:19:30.472Z,60.74
2023-02-22T16:20:30.650Z,58.84
2023-02-22T16:21:30.451Z,57.91
2023-02-22T16:22:34.596Z,57.71
2023-02-22T16:23:22.867Z,57.61
2023-02-22T16:24:30.587Z,57.06
2023-02-22T16:25:32.211Z,57.08
2023-02-22T16:26:32.640Z,57.31
2023-02-22T16:27:30.381Z,57.71
2023-02-22T16:28:34.449Z,57.61
2023-02-22T16:29:23.000Z,0
2023-02-22T16:30:30.395Z,58.67
2023-02-22T16:31:22.800Z,59.1
2023-02-22T16:32:30.346Z,59.27
2023-02-22T16:33:22.701Z,59.2
2023-02-22T16:34:30.471Z,59.17
2023-02-22T16:35:22.673Z,59.2
2023-02-22T16:36:22.675Z,59.5
2023-02-22T16:37:31.391Z,59.6
2023-02-22T16:38:22.662Z,59.83
2023-02-22T16:39:22.705Z,60.13
2023-02-22T16:40:22.602Z,60.24
2023-02-22T16:41:31.312Z,60.11
2023-02-22T16:42:22.613Z,60.13
2023-02-22T16:43:22.634Z,60.33
2023-02-22T16:44:30.879Z,60.24
2023-02-22T16:45:30.221Z,60
2023-02-22T16:46:31.184Z,59.94
2023-02-22T16:47:22.572Z,60.03
2023-02-22T16:48:22.568Z,60.57
2023-02-22T16:49:30.115Z,61.86
2023-02-22T16:50:22.591Z,0
2023-02-22T16:51:22.519Z,64.81
2023-02-22T16:52:22.477Z,65.78
2023-02-22T16:53:22.492Z,66.48
2023-02-22T16:54:22.480Z,66.82
2023-02-22T16:55:22.447Z,67.22
2023-02-22T16:56:22.457Z,67.55
2023-02-22T16:58:46.371Z,71.26
2023-02-22T16:59:46.364Z,70.79
2023-02-22T17:00:46.307Z,70.39
2023-02-22T17:01:46.315Z,70.05
2023-02-22T17:02:46.300Z,69.74
2023-02-22T17:03:46.283Z,69.54
2023-02-22T17:04:46.299Z,69.44
2023-02-22T17:05:46.267Z,69.34
2023-02-22T17:06:46.257Z,69.85
2023-02-22T17:07:46.258Z,69.88
2023-02-22T17:08:46.229Z,69.98
2023-02-22T17:09:53.797Z,70.39
2023-02-22T17:10:46.261Z,70.39
2023-02-22T17:11:46.219Z,70.18
2023-02-22T17:12:46.220Z,70.29
2023-02-22T17:13:46.234Z,70.29
2023-02-22T17:14:46.304Z,70.08
2023-02-22T17:15:46.159Z,69.88
2023-02-22T17:16:46.145Z,69.88
2023-02-22T17:17:46.152Z,69.88
2023-02-22T17:18:46.122Z,69.98
2023-02-22T17:19:46.113Z,70.08
2023-02-22T17:20:46.108Z,70.18
2023-02-22T17:21:46.090Z,70.32
2023-02-22T17:22:46.093Z,70.32
2023-02-22T17:23:46.095Z,70.52
2023-02-22T17:24:46.101Z,70.62
2023-02-22T17:25:46.052Z,70.83
2023-02-22T17:26:46.037Z,70.86
2023-02-22T17:27:46.025Z,70.96
2023-02-22T17:28:46.012Z,71.06
2023-02-22T17:29:45.998Z,70.96
2023-02-22T17:30:45.986Z,70.86
2023-02-22T17:31:45.982Z,70.86